Flight Track Log - Related Links

Times and Time Zones

All times are in EDT time to prevent confusion due to time zone crossing. See the DAL6225 flight status page for this flight to view local times or setup timezone preferences in your user account.

Time Position Orientation Groundspeed Altitude Reporting Facility
EDT Latitude Longitude Course Direction KTS MPH feet Rate Location/Type
Tue 08:41:32 AM 43.1022 -89.3081 91° East 205 236 3,000  Level Chicago Center
Tue 08:42:33 AM 43.1011 -89.2097 91° East 258 297 5,000 2,488 Climbing Chicago Center
Tue 08:43:35 AM 43.1042 -89.0925 88° East 300 345 8,100 2,806 Climbing Chicago Center
Tue 08:44:37 AM 43.1069 -88.9700 88° East 321 369 10,800 2,323 Climbing Chicago Center
Tue 08:45:39 AM 43.1081 -88.8372 89° East 348 400 12,900 1,984 Climbing Chicago Center
Tue 08:46:41 AM 43.1100 -88.6933 89° East 376 433 14,900 2,129 Climbing Chicago Center
Tue 08:47:43 AM 43.1125 -88.5158 89° East 401 461 17,300 2,177 Climbing Chicago Center
Tue 08:48:45 AM 43.1139 -88.3572 89° East 416 479 19,400 2,000 Climbing Chicago Center
Tue 08:49:46 AM 43.1197 -88.1964 87° East 424 488 21,400 1,902 Climbing Chicago Center
Tue 08:50:48 AM 43.1283 -88.0339 86° East 428 493 23,300 1,790 Climbing Chicago Center
Tue 08:51:50 AM 43.1347 -87.8683 87° East 437 503 25,100 1,887 Climbing Chicago Center
Tue 08:52:52 AM 43.1442 -87.6753 86° East 437 503 27,200 1,756 Climbing Chicago Center
Tue 08:53:53 AM 43.1511 -87.5092 87° East 439 505 28,700 1,268 Climbing Chicago Center
Tue 08:54:55 AM 43.1572 -87.3581 87° East 441 507 29,800 1,113 Climbing Chicago Center
Tue 08:55:57 AM 43.1650 -87.1883 86° East 447 514 31,000 1,258 Climbing Chicago Center
Tue 08:56:59 AM 43.1731 -86.9836 87° East 449 517 32,400 1,161 Climbing Chicago Center
Tue 08:58:01 AM 43.1794 -86.8100 87° East 455 524 33,400 976 Climbing Chicago Center
Tue 08:59:02 AM 43.1867 -86.6353 87° East 459 528 34,400 780 Climbing Chicago Center
Tue 09:00:04 AM 43.1936 -86.4586 87° East 463 533 35,000 290 Climbing Chicago Center
Tue 09:01:06 AM 43.1989 -86.2817 88° East 463 533 35,000  Level Chicago Center
Tue 09:02:08 AM 43.2042 -86.1094 88° East 453 521 35,000  Level Chicago Center
Tue 09:03:09 AM 43.2089 -85.9361 88° East 447 514 35,000  Level Chicago Center
Tue 09:04:11 AM 43.2133 -85.7658 88° East 441 507 35,000  Level Chicago Center
Tue 09:05:13 AM 43.2178 -85.5967 88° East 440 506 35,000  Level Chicago Center
Tue 09:06:15 AM 43.2233 -85.3919 88° East 446 513 35,000  Level Chicago Center
Tue 09:06:45 AM 43.2239 -85.3219 89° East 422 486 35,000  Level Cleveland Center
Tue 09:07:45 AM 43.2286 -85.1511 88° East 433 498 35,000  Level Cleveland Center
Tue 09:08:45 AM 43.2311 -84.9803 89° East 440 506 35,000  Level Cleveland Center
Tue 09:09:45 AM 43.2333 -84.8036 89° East 445 512 35,000  Level Cleveland Center
Tue 09:10:45 AM 43.2378 -84.6272 88° East 457 526 35,000  Level Cleveland Center
Tue 09:11:45 AM 43.2397 -84.4478 89° East 462 532 35,000  Level Cleveland Center
Tue 09:12:45 AM 43.2436 -84.2656 88° East 467 537 35,000  Level Cleveland Center
Tue 09:13:45 AM 43.2447 -84.0889 89° East 467 537 35,000  Level Cleveland Center
Tue 09:14:45 AM 43.2481 -83.9122 88° East 467 537 35,000  Level Cleveland Center
Tue 09:15:45 AM 43.2489 -83.7328 90° East 467 537 35,000  Level Cleveland Center
Tue 09:16:45 AM 43.2494 -83.5503 90° East 467 537 35,000  Level Cleveland Center
Tue 09:17:45 AM 43.2517 -83.3736 89° East 473 544 35,000  Level Cleveland Center
Tue 09:18:45 AM 43.2517 -83.1969 90° East 463 533 35,000  Level Cleveland Center
Tue 09:19:45 AM 43.2556 -83.0233 88° East 456 525 35,000  Level Cleveland Center
Tue 09:20:45 AM 43.2528 -82.8522 91° East 451 519 35,000  Level Cleveland Center
Tue 09:21:45 AM 43.2519 -82.6781 90° East 451 519 35,000  Level Cleveland Center
Tue 09:22:03 AM 43.2500 -82.6167 92° East 460 529 35,000  Level Toronto Center
Tue 09:23:03 AM 43.2333 -82.4167 96° East 460 529 35,000  Level Toronto Center
Tue 09:24:03 AM 43.2167 -82.2333 97° East 460 529 35,000  Level Toronto Center
Tue 09:25:03 AM 43.2000 -82.0500 97° East 460 529 35,000  Level Toronto Center
Tue 09:26:03 AM 43.2000 -81.9000 90° East 460 529 35,000  Level Toronto Center
Tue 09:27:03 AM 43.1833 -81.7333 98° East 460 529 35,000  Level Toronto Center
Tue 09:28:03 AM 43.1667 -81.5500 97° East 460 529 35,000  Level Toronto Center
Tue 09:29:03 AM 43.1500 -81.3667 97° East 460 529 35,000  Level Toronto Center
Tue 09:30:03 AM 43.1333 -81.2167 99° East 450 518 35,000  Level Toronto Center
Tue 09:31:03 AM 43.1167 -81.0333 97° East 450 518 35,000  Level Toronto Center
Tue 09:32:03 AM 43.1000 -80.8667 98° East 450 518 35,000  Level Toronto Center
Tue 09:33:03 AM 43.1000 -80.6833 90° East 450 518 35,000  Level Toronto Center
Tue 09:34:03 AM 43.1000 -80.5167 90° East 450 518 35,000  Level Toronto Center
Tue 09:35:03 AM 43.0833 -80.3333 97° East 460 529 35,000  Level Toronto Center
Tue 09:36:03 AM 43.0667 -80.1833 99° East 460 529 35,000  Level Toronto Center
Tue 09:37:03 AM 43.0500 -80.0000 97° East 460 529 35,000  Level Toronto Center
Tue 09:38:03 AM 43.0333 -79.8167 97° East 470 541 35,000  Level Toronto Center
Tue 09:39:03 AM 43.0167 -79.6500 98° East 470 541 35,000  Level Toronto Center
Tue 09:40:03 AM 43.0000 -79.4667 97° East 460 529 35,000  Level Toronto Center
Tue 09:41:03 AM 42.9833 -79.2833 97° East 460 529 35,000  Level Toronto Center
Tue 09:42:03 AM 42.9667 -79.1333 99° East 460 529 35,000  Level Toronto Center
Tue 09:43:03 AM 42.9500 -78.9500 97° East 470 541 35,000  Level Toronto Center
Tue 09:44:03 AM 42.9333 -78.7667 97° East 470 541 35,000  Level Toronto Center
Tue 09:44:33 AM 42.9347 -78.7031 88° East 462 532 35,000  Level Cleveland Center
Tue 09:45:33 AM 42.9172 -78.5250 98° East 462 532 35,000  Level Cleveland Center
Tue 09:46:33 AM 42.8992 -78.3500 98° East 462 532 35,000  Level Cleveland Center
Tue 09:47:33 AM 42.8811 -78.1747 98° East 462 532 35,000  Level Cleveland Center
Tue 09:48:33 AM 42.8653 -78.0225 98° East 462 532 35,000  Level Cleveland Center
Tue 09:49:33 AM 42.8489 -77.8475 97° East 462 532 35,000  Level Cleveland Center
Tue 09:50:33 AM 42.8281 -77.6728 99° East 462 532 35,000  Level Cleveland Center
Tue 09:51:33 AM 42.8047 -77.5042 101° East 462 532 35,000  Level Cleveland Center
Tue 09:52:33 AM 42.7792 -77.3300 101° East 462 532 35,000  Level Cleveland Center
Tue 09:54:02 AM 42.7433 -77.0803 101° East 474 545 35,000  Level Boston Center
Tue 09:55:01 AM 42.7189 -76.9089 101° East 469 540 35,000  Level Boston Center
Tue 09:56:02 AM 42.6944 -76.7375 101° East 464 534 35,000  Level Boston Center
Tue 09:57:01 AM 42.6672 -76.5689 102° East 464 534 35,000 -101 Level Boston Center
Tue 09:58:01 AM 42.6442 -76.3950 100° East 464 534 34,800 -645 Descending Boston Center
Tue 09:59:02 AM 42.6186 -76.2269 102° East 464 534 33,700 -1,050 Descending Boston Center
Tue 10:00:01 AM 42.5947 -76.0647 101° East 452 520 32,700 -1,100 Descending Boston Center
Tue 10:01:02 AM 42.5653 -75.8767 102° East 452 520 31,500 -1,100 Descending Boston Center
Tue 10:02:01 AM 42.5389 -75.7089 102° East 452 520 30,500 -1,008 Descending Boston Center
Tue 10:03:01 AM 42.5125 -75.5386 102° East 457 526 29,500 -992 Descending Boston Center
Tue 10:04:02 AM 42.4875 -75.3711 101° East 457 526 28,500 -1,000 Descending Boston Center
Tue 10:05:01 AM 42.4542 -75.2119 106° East 450 518 27,500 -1,000 Descending Boston Center
Tue 10:06:02 AM 42.4033 -75.0664 115° Southeast 440 506 26,500 -1,000 Descending Boston Center
Tue 10:07:01 AM 42.3461 -74.9206 118° Southeast 435 501 25,500 -1,000 Descending Boston Center
Tue 10:08:02 AM 42.2931 -74.7753 116° Southeast 435 501 24,500 -1,041 Descending Boston Center
Tue 10:09:02 AM 42.2417 -74.6303 116° Southeast 430 495 23,400 -1,700 Descending Boston Center
Tue 10:10:02 AM 42.1900 -74.4942 117° Southeast 424 488 21,100 -2,319 Descending Boston Center
Tue 10:11:01 AM 42.1403 -74.3581 116° Southeast 404 465 18,800 -1,563 Descending Boston Center
Tue 10:12:01 AM 42.0903 -74.2361 119° Southeast 390 449 18,000 -400 Descending Boston Center
Tue 10:13:01 AM 42.0039 -74.1500 143° Southeast 378 435 18,000  Level Boston Center
Tue 10:14:14 AM 41.8758 -74.0794 158° South 402 463 18,000 -409 Level Boston Center
Tue 10:15:13 AM 41.7786 -74.0297 159° South 415 478 17,100 -1,550 Descending Boston Center
Tue 10:16:14 AM 41.6689 -73.9714 158° South 404 465 14,900 -2,133 Descending Boston Center
Tue 10:17:28 AM 41.5500 -73.9000 156° South 367 422 12,300 -1,881 Descending New York TRACON
Tue 10:18:28 AM 41.4667 -73.8667 163° South 327 376 10,700 -1,450 Descending New York TRACON
Tue 10:19:28 AM 41.3833 -73.8167 156° South 280 322 9,400 -1,000 Descending New York TRACON
Tue 10:20:28 AM 41.3167 -73.7667 151° Southeast 283 326 8,700 -1,250 Descending New York TRACON
Tue 10:21:28 AM 41.2500 -73.7167 151° Southeast 272 313 6,900 -1,750 Descending New York TRACON
Tue 10:22:28 AM 41.2000 -73.6667 143° Southeast 259 298 5,200 -1,400 Descending New York TRACON
Tue 10:23:28 AM 41.1333 -73.6167 151° Southeast 255 293 4,100 -600 Descending New York TRACON
Tue 10:24:28 AM 41.0667 -73.6333 191° South 265 305 4,000  Descending New York TRACON
Tue 10:25:28 AM 41.0167 -73.6833 217° Southwest 262 302 4,100  Climbing New York TRACON
Tue 10:26:28 AM 40.9833 -73.7500 236° Southwest 211 243 4,000  Descending New York TRACON
Tue 10:27:34 AM 40.9333 -73.8000 217° Southwest 191 220 4,100 48 Climbing New York TRACON
Tue 10:28:34 AM 40.9000 -73.8667 237° Southwest 198 228 4,100  Level New York TRACON
Tue 10:29:34 AM 40.8667 -73.9167 229° Southwest 193 222 4,100  Level New York TRACON
Tue 10:30:34 AM 40.8333 -73.9500 217° Southwest 189 217 4,100  Level New York TRACON
Tue 10:31:40 AM 40.7833 -74.0000 217° Southwest 190 219 4,100  Level New York TRACON
Tue 10:32:40 AM 40.7333 -74.0333 207° Southwest 183 211 4,100  Level New York TRACON
Tue 10:33:40 AM 40.6833 -74.0500 194° South 185 213 4,100  Level New York TRACON
Tue 10:34:40 AM 40.6500 -74.0833 217° Southwest 187 215 4,100 -450 Level New York TRACON
Tue 10:35:40 AM 40.6167 -74.0500 143° Southeast 172 198 3,200 -500 Descending New York TRACON
Tue 10:36:40 AM 40.6333 -74.0000 66° East 171 197 3,100 -100 Descending New York TRACON

Login

Don't have an account? Register now (free) for customized features, flight alerts, and more!